Time;durP1;ratioP1;P1;durP2;ratioP2;P2;SDS_P1;SDS_P2;PMS_P1;PMS_P2;Temp;Humidity;BMP_temperature;BMP_pressure;BME280_temperature;BME280_humidity;BME280_pressure;Samples;Min_cycle;Max_cycle;Signal;HPM_P1;HPM_P2
2022/07/22 00:01:12;;;;;;;7.00;4.43;;;;;;;23.55;66.00;98254.41;4995999;28;20171;-69
2022/07/22 00:03:38;;;;;;;6.78;4.00;;;;;;;23.28;67.39;98246.44;4996016;28;20179;-69
2022/07/22 00:06:03;;;;;;;5.80;3.97;;;;;;;22.99;69.05;98246.50;4994659;28;20186;-69
2022/07/22 00:08:29;;;;;;;6.03;3.80;;;;;;;23.14;68.14;98248.09;4996281;28;20691;-69
2022/07/22 00:10:54;;;;;;;5.15;4.18;;;;;;;22.89;69.37;98252.09;4995790;28;20171;-69
2022/07/22 00:13:20;;;;;;;5.30;3.90;;;;;;;23.07;68.31;98223.47;4995713;28;20201;-69
2022/07/22 00:15:45;;;;;;;4.28;3.67;;;;;;;23.19;68.12;98240.47;4994425;28;20183;-69
2022/07/22 00:18:11;;;;;;;5.50;4.43;;;;;;;23.05;69.27;98245.75;4995900;28;20195;-69
2022/07/22 00:20:37;;;;;;;7.97;4.20;;;;;;;23.34;68.62;98250.97;4995562;28;20167;-70
2022/07/22 00:23:03;;;;;;;8.88;4.35;;;;;;;23.13;69.38;98251.75;4994361;28;20620;-70
2022/07/22 00:25:28;;;;;;;9.27;4.30;;;;;;;23.22;69.30;98257.75;5010392;28;20297;-69
2022/07/22 00:27:54;;;;;;;8.05;4.22;;;;;;;23.41;68.09;98249.19;4995526;28;20169;-69
2022/07/22 00:30:20;;;;;;;4.32;3.72;;;;;;;23.19;69.35;98264.22;4995412;28;20179;-70
2022/07/22 00:32:45;;;;;;;5.18;3.70;;;;;;;22.78;71.09;98257.06;4995399;28;20171;-70
2022/07/22 00:35:10;;;;;;;5.85;3.95;;;;;;;22.62;72.10;98257.25;4995377;28;20719;-69
2022/07/22 00:37:36;;;;;;;5.53;3.88;;;;;;;22.74;71.76;98263.69;4995346;28;20195;-69
2022/07/22 00:40:02;;;;;;;5.25;4.00;;;;;;;22.80;71.61;98258.50;4995287;28;20615;-69
2022/07/22 00:42:28;;;;;;;5.60;3.67;;;;;;;22.81;71.83;98265.41;4995205;28;20198;-69
2022/07/22 00:44:53;;;;;;;9.32;4.03;;;;;;;22.67;72.76;98268.88;5010239;28;20657;-69
2022/07/22 00:47:19;;;;;;;9.02;4.45;;;;;;;22.30;74.35;98249.69;4995128;28;20179;-70
2022/07/22 00:49:44;;;;;;;5.28;3.67;;;;;;;22.26;73.51;98251.06;4995348;28;20532;-70
2022/07/22 00:52:10;;;;;;;8.73;3.80;;;;;;;22.36;72.59;98255.06;4995054;28;20167;-70
2022/07/22 00:54:37;;;;;;;5.95;3.95;;;;;;;22.45;72.04;98258.44;4994996;28;20645;-69
2022/07/22 00:57:02;;;;;;;8.85;3.78;;;;;;;22.16;73.81;98253.97;4994774;28;20690;-69
2022/07/22 00:59:28;;;;;;;4.57;4.13;;;;;;;22.22;73.81;98252.41;4993651;28;20269;-70
2022/07/22 01:01:53;;;;;;;5.32;3.90;;;;;;;22.21;73.24;98248.16;5009938;28;20660;-70
2022/07/22 01:04:19;;;;;;;6.53;3.53;;;;;;;22.41;71.67;98243.94;4994900;28;20175;-69
2022/07/22 01:06:44;;;;;;;5.38;3.95;;;;;;;22.57;70.44;98251.69;4994534;28;20171;-69
2022/07/22 01:09:11;;;;;;;4.40;3.90;;;;;;;22.32;71.24;98252.97;5009768;28;20321;-69
2022/07/22 01:11:37;;;;;;;6.80;3.33;;;;;;;22.09;71.87;98258.31;4994780;28;20171;-69
2022/07/22 01:14:03;;;;;;;4.75;3.53;;;;;;;22.12;71.42;98247.41;4994794;28;20170;-69
2022/07/22 01:16:28;;;;;;;8.32;4.20;;;;;;;21.79;73.14;98234.75;4994925;28;20186;-69
2022/07/22 01:18:54;;;;;;;4.28;3.88;;;;;;;21.81;73.22;98256.47;4994631;28;20226;-69
2022/07/22 01:21:20;;;;;;;5.75;3.33;;;;;;;21.78;73.45;98254.16;4994528;28;20567;-69
2022/07/22 01:23:47;;;;;;;4.82;3.80;;;;;;;21.90;72.93;98255.38;4994335;28;20627;-69
2022/07/22 01:26:13;;;;;;;6.43;3.78;;;;;;;22.02;71.28;98267.13;4994156;28;20215;-70
2022/07/22 01:28:40;;;;;;;5.85;3.80;;;;;;;21.91;72.00;98263.09;4994229;28;20206;-69
2022/07/22 01:31:06;;;;;;;5.85;3.80;;;;;;;21.65;73.64;98259.19;4994729;28;20175;-69
2022/07/22 01:33:32;;;;;;;6.55;3.63;;;;;;;21.85;72.68;98258.56;4994258;28;20207;-69
2022/07/22 01:35:58;;;;;;;6.88;3.72;;;;;;;21.87;72.52;98258.38;4992814;28;20271;-70
2022/07/22 01:38:23;;;;;;;7.70;3.70;;;;;;;21.86;73.13;98262.00;4994058;28;20274;-69
2022/07/22 01:40:49;;;;;;;6.57;3.88;;;;;;;22.07;71.81;98254.22;5009102;28;20664;-69
2022/07/22 01:43:17;;;;;;;4.90;3.83;;;;;;;21.90;73.09;98253.56;4994231;28;20225;-69
2022/07/22 01:45:44;;;;;;;4.10;3.67;;;;;;;21.81;74.10;98256.47;4993876;28;20229;-69
2022/07/22 01:48:10;;;;;;;5.68;3.92;;;;;;;21.99;73.21;98262.22;4993868;28;20175;-69
2022/07/22 01:50:36;;;;;;;4.00;3.60;;;;;;;22.32;70.99;98258.25;4993804;28;20206;-70
2022/07/22 01:53:02;;;;;;;5.88;3.70;;;;;;;22.11;72.34;98255.50;4993820;28;20207;-70
2022/07/22 01:55:27;;;;;;;4.18;3.78;;;;;;;21.93;73.19;98252.41;4993769;28;20186;-69
2022/07/22 01:57:52;;;;;;;5.45;3.50;;;;;;;21.85;73.37;98252.47;4993752;28;20187;-69
2022/07/22 02:00:18;;;;;;;4.28;3.88;;;;;;;22.11;71.67;98248.41;4992417;28;20244;-69
2022/07/22 02:02:43;;;;;;;5.55;4.07;;;;;;;22.14;71.72;98255.16;4993573;28;20202;-70
2022/07/22 02:05:09;;;;;;;4.88;3.83;;;;;;;22.10;72.03;98253.88;4993535;28;20167;-69
2022/07/22 02:07:35;;;;;;;7.05;4.18;;;;;;;22.38;69.93;98246.97;4993521;28;20171;-69
2022/07/22 02:10:00;;;;;;;6.40;3.90;;;;;;;22.43;69.63;98240.16;4993407;28;20171;-69
2022/07/22 02:12:26;;;;;;;3.85;3.42;;;;;;;22.11;71.08;98224.69;5008561;28;20179;-69
2022/07/22 02:14:51;;;;;;;3.83;3.53;;;;;;;22.22;71.55;98236.59;4993634;28;20175;-69
2022/07/22 02:17:17;;;;;;;6.57;4.28;;;;;;;22.38;70.58;98242.50;4993302;28;20278;-69
2022/07/22 02:19:43;;;;;;;7.68;4.03;;;;;;;22.28;70.93;98243.78;4992927;28;20197;-69
2022/07/22 02:22:08;;;;;;;4.40;3.97;;;;;;;22.14;71.90;98252.50;4993219;28;20179;-69
2022/07/22 02:24:34;;;;;;;10.20;4.18;;;;;;;21.81;73.68;98244.13;4993228;28;20282;-69
2022/07/22 02:27:00;;;;;;;6.00;3.45;;;;;;;21.73;74.26;98246.81;4993111;28;20191;-69
2022/07/22 02:29:26;;;;;;;30.75;6.47;;;;;;;21.80;74.20;98247.72;5008254;28;20183;-69
2022/07/22 02:31:51;;;;;;;15.15;3.92;;;;;;;21.91;73.41;98249.13;4993048;28;20323;-69
2022/07/22 02:34:17;;;;;;;13.13;3.92;;;;;;;21.90;73.56;98242.19;4993530;28;20237;-69
2022/07/22 02:36:42;;;;;;;5.25;3.80;;;;;;;21.80;74.40;98241.66;4993281;28;20199;-69
2022/07/22 02:39:08;;;;;;;6.85;4.40;;;;;;;21.90;74.08;98244.84;4993376;28;20206;-69
2022/07/22 02:41:33;;;;;;;6.07;4.15;;;;;;;21.93;74.00;98236.59;4993003;28;20172;-69
2022/07/22 02:43:59;;;;;;;5.38;3.75;;;;;;;21.70;75.66;98233.19;4992927;28;20202;-69
2022/07/22 02:46:25;;;;;;;4.38;3.90;;;;;;;21.81;75.13;98236.22;4993338;28;20175;-69
2022/07/22 02:48:51;;;;;;;5.78;4.22;;;;;;;21.85;75.03;98232.22;4992901;28;20168;-69
2022/07/22 02:51:17;;;;;;;4.93;3.72;;;;;;;21.95;74.29;98237.22;4992834;28;20698;-69
2022/07/22 02:53:42;;;;;;;5.53;4.03;;;;;;;21.87;74.85;98226.75;4992826;28;20237;-69
2022/07/22 02:56:08;;;;;;;4.05;3.53;;;;;;;21.80;74.92;98231.91;5007939;28;20183;-69
2022/07/22 02:58:33;;;;;;;6.43;3.78;;;;;;;21.88;73.90;98228.41;4991459;28;20601;-69
2022/07/22 03:00:59;;;;;;;4.25;3.85;;;;;;;21.78;73.53;98223.38;4992743;28;20178;-69
2022/07/22 03:03:24;;;;;;;4.03;3.60;;;;;;;21.70;73.99;98222.66;4991469;28;20572;-69
2022/07/22 03:05:49;;;;;;;5.60;3.63;;;;;;;21.63;74.90;98214.59;4992719;28;20555;-70
2022/07/22 03:08:15;;;;;;;7.07;3.88;;;;;;;21.87;72.45;98218.88;4992729;28;20621;-70
2022/07/22 03:10:41;;;;;;;5.30;4.13;;;;;;;21.90;73.37;98231.66;4992620;28;20183;-69
2022/07/22 03:13:06;;;;;;;5.57;3.88;;;;;;;21.77;74.14;98226.19;4992640;28;20177;-70
2022/07/22 03:15:32;;;;;;;5.55;4.05;;;;;;;21.83;73.70;98220.22;4992653;28;20193;-69
2022/07/22 03:17:57;;;;;;;6.70;4.22;;;;;;;21.80;73.81;98225.84;4992796;28;20255;-70
2022/07/22 03:20:23;;;;;;;3.60;3.30;;;;;;;21.83;71.62;98226.31;4992538;28;20230;-71
2022/07/22 03:22:48;;;;;;;3.92;3.58;;;;;;;21.83;72.11;98225.47;4992439;28;20233;-70
2022/07/22 03:25:14;;;;;;;5.45;3.90;;;;;;;21.99;71.25;98238.50;4992339;28;20642;-70
2022/07/22 03:27:39;;;;;;;4.25;3.95;;;;;;;21.80;73.89;98239.81;4992488;28;20171;-70
2022/07/22 03:30:05;;;;;;;4.40;4.00;;;;;;;21.67;75.31;98237.00;4993925;28;20170;-70
2022/07/22 03:32:31;;;;;;;9.38;3.90;;;;;;;21.53;75.86;98239.56;4996725;28;20178;-69
2022/07/22 03:34:56;;;;;;;8.23;4.32;;;;;;;21.70;75.45;98235.81;4996677;28;20258;-70
2022/07/22 03:37:22;;;;;;;5.18;3.97;;;;;;;21.92;74.89;98241.03;4995130;28;20661;-70
2022/07/22 03:39:47;;;;;;;4.50;3.72;;;;;;;22.01;75.27;98249.66;4996446;28;20182;-69
2022/07/22 03:42:13;;;;;;;6.07;3.90;;;;;;;22.07;75.36;98249.78;5011411;28;20214;-70
2022/07/22 03:44:38;;;;;;;4.72;4.18;;;;;;;22.36;73.46;98243.66;4996168;28;20233;-69
2022/07/22 03:47:04;;;;;;;8.38;4.30;;;;;;;22.54;72.67;98252.06;4996165;28;20583;-70
2022/07/22 03:49:30;;;;;;;7.05;3.80;;;;;;;22.68;73.28;98248.59;4996252;28;20559;-69
2022/07/22 03:51:56;;;;;;;5.75;3.42;;;;;;;22.85;67.16;98261.38;4996081;28;20645;-70
2022/07/22 03:54:21;;;;;;;4.13;3.72;;;;;;;22.89;65.21;98252.09;4994759;28;20179;-69
2022/07/22 03:56:47;;;;;;;3.55;3.25;;;;;;;23.02;62.00;98264.63;5011003;28;20185;-69
2022/07/22 03:59:12;;;;;;;4.60;3.63;;;;;;;22.99;63.03;98268.47;4994627;28;20199;-70
2022/07/22 04:01:37;;;;;;;4.70;3.92;;;;;;;23.07;62.63;98263.06;4994681;28;20194;-71
2022/07/22 04:04:03;;;;;;;3.80;3.50;;;;;;;23.22;61.32;98266.50;4995902;28;20175;-70
2022/07/22 04:06:28;;;;;;;4.63;3.30;;;;;;;23.29;61.01;98267.38;4995824;28;20698;-69
2022/07/22 04:08:54;;;;;;;5.85;3.17;;;;;;;23.30;61.34;98249.72;5010887;28;20605;-71
2022/07/22 04:11:20;;;;;;;4.35;3.95;;;;;;;23.49;60.85;98265.75;4996029;28;20179;-71
2022/07/22 04:13:46;;;;;;;3.53;3.22;;;;;;;23.65;59.53;98267.31;4995847;28;20230;-70
2022/07/22 04:16:11;;;;;;;7.78;3.95;;;;;;;23.71;58.71;98277.13;5010806;28;20187;-70
2022/07/22 04:18:37;;;;;;;4.57;3.38;;;;;;;23.80;58.35;98263.59;4995592;28;20230;-70
2022/07/22 04:21:02;;;;;;;4.68;3.85;;;;;;;23.83;58.46;98261.38;4995521;28;20205;-71
2022/07/22 04:23:27;;;;;;;3.97;3.58;;;;;;;23.83;59.43;98265.03;4995536;28;20178;-71
2022/07/22 04:25:53;;;;;;;4.30;3.90;;;;;;;23.90;59.03;98268.56;5010433;28;20762;-70
2022/07/22 04:28:18;;;;;;;5.60;3.40;;;;;;;23.98;58.11;98268.41;4995452;28;20675;-70
2022/07/22 04:30:44;;;;;;;3.88;3.58;;;;;;;23.96;58.30;98267.81;4995627;28;20258;-71
2022/07/22 04:33:09;;;;;;;8.95;3.72;;;;;;;23.92;59.25;98264.72;4995595;28;20181;-71
2022/07/22 04:35:35;;;;;;;5.20;4.00;;;;;;;24.00;58.66;98269.06;4995461;28;20606;-70
2022/07/22 04:38:00;;;;;;;5.45;3.70;;;;;;;24.16;59.04;98272.22;4995228;28;20256;-71
2022/07/22 04:40:26;;;;;;;7.35;4.10;;;;;;;24.27;58.67;98274.31;4995337;28;20181;-71
2022/07/22 04:42:51;;;;;;;4.72;3.60;;;;;;;24.35;58.16;98275.00;5009698;28;20252;-70
2022/07/22 04:45:17;;;;;;;5.05;3.53;;;;;;;24.41;57.69;98276.03;4995274;28;20564;-71
2022/07/22 04:47:42;;;;;;;7.55;3.63;;;;;;;24.45;57.37;98274.63;5010179;28;20171;-70
2022/07/22 04:50:08;;;;;;;4.10;3.70;;;;;;;24.54;57.53;98270.78;4995172;28;20175;-71
2022/07/22 04:52:34;;;;;;;4.72;3.35;;;;;;;24.63;56.88;98275.78;4993713;28;20326;-69
2022/07/22 04:54:59;;;;;;;6.40;4.43;;;;;;;24.80;56.44;98290.31;4994940;28;20258;-70
2022/07/22 04:57:25;;;;;;;5.57;4.57;;;;;;;24.99;56.43;98294.88;4993526;28;20707;-70
2022/07/22 04:59:52;;;;;;;5.43;3.80;;;;;;;25.22;56.41;98294.53;4995090;28;20179;-70
2022/07/22 05:02:17;;;;;;;6.13;4.10;;;;;;;25.47;55.46;98301.75;5009899;28;20202;-69
2022/07/22 05:04:43;;;;;;;4.28;3.88;;;;;;;25.56;54.85;98295.25;5009796;28;20656;-70
2022/07/22 05:07:08;;;;;;;9.02;3.80;;;;;;;25.73;54.46;98301.75;4994983;28;20194;-69
2022/07/22 05:09:33;;;;;;;4.28;3.88;;;;;;;25.67;53.88;98305.22;5009780;28;20237;-69
2022/07/22 05:11:59;;;;;;;5.15;4.55;;;;;;;25.73;53.31;98301.75;4994606;28;20163;-69
2022/07/22 05:14:24;;;;;;;4.13;3.70;;;;;;;25.59;54.16;98299.34;4994609;28;20569;-69
2022/07/22 05:16:50;;;;;;;6.47;3.75;;;;;;;25.58;54.37;98305.63;4994700;28;20559;-70
2022/07/22 05:19:15;;;;;;;7.18;3.55;;;;;;;25.50;53.99;98304.00;4994397;28;20687;-70
2022/07/22 05:21:41;;;;;;;4.00;3.60;;;;;;;25.42;54.02;98309.47;4994398;28;20258;-69
2022/07/22 05:24:07;;;;;;;4.13;3.58;;;;;;;25.38;53.91;98302.94;4994244;28;20560;-69
2022/07/22 05:26:33;;;;;;;8.13;3.90;;;;;;;25.38;54.11;98289.69;4994818;28;20282;-69
2022/07/22 05:28:59;;;;;;;5.10;3.22;;;;;;;25.52;53.42;98301.13;4994260;28;20266;-69
2022/07/22 05:31:24;;;;;;;6.82;3.55;;;;;;;25.54;53.33;98286.66;5009512;28;20354;-69
2022/07/22 05:33:50;;;;;;;6.55;4.15;;;;;;;25.46;53.83;98280.75;4994159;28;20179;-69
2022/07/22 05:36:15;;;;;;;5.07;3.72;;;;;;;25.55;54.01;98290.94;4994204;28;20172;-69
2022/07/22 05:38:41;;;;;;;6.50;3.67;;;;;;;25.55;53.97;98287.50;4994044;28;20254;-69
2022/07/22 05:41:06;;;;;;;4.40;3.72;;;;;;;25.56;53.74;98289.13;4994069;28;20565;-69
2022/07/22 05:43:32;;;;;;;6.30;3.72;;;;;;;25.64;53.84;98295.03;4992784;28;20564;-69
2022/07/22 05:45:57;;;;;;;3.80;3.50;;;;;;;25.64;53.32;98289.75;4994264;28;20671;-69
2022/07/22 05:48:23;;;;;;;7.90;3.90;;;;;;;25.74;53.35;98289.34;4993979;28;20175;-69
2022/07/22 05:50:48;;;;;;;4.07;3.42;;;;;;;25.78;53.46;98279.97;4994174;28;20665;-69
2022/07/22 05:53:14;;;;;;;5.85;4.22;;;;;;;25.93;53.03;98280.59;4991751;28;20218;-69
2022/07/22 05:55:39;;;;;;;9.85;4.50;;;;;;;26.11;52.54;98284.25;4993687;28;20182;-69
2022/07/22 05:58:05;;;;;;;6.63;3.78;;;;;;;26.16;52.72;98283.63;4992366;28;20703;-69
2022/07/22 06:00:30;;;;;;;6.40;3.60;;;;;;;26.13;52.77;98279.56;4993926;28;20210;-69
2022/07/22 06:02:55;;;;;;;5.75;4.15;;;;;;;26.20;52.03;98285.69;4993652;28;20265;-70
2022/07/22 06:05:21;;;;;;;4.80;3.90;;;;;;;26.26;51.67;98281.38;4992372;28;20261;-70
2022/07/22 06:07:47;;;;;;;5.22;4.35;;;;;;;26.32;52.11;98284.03;4993551;28;20563;-70
2022/07/22 06:10:12;;;;;;;5.60;4.95;;;;;;;26.45;52.40;98284.00;4993444;28;20186;-70
2022/07/22 06:12:38;;;;;;;4.85;4.47;;;;;;;26.56;51.47;98280.75;4992211;28;20219;-70
2022/07/22 06:15:04;;;;;;;4.40;4.00;;;;;;;26.72;50.65;98285.59;4993529;28;20177;-70
2022/07/22 06:17:30;;;;;;;4.53;3.92;;;;;;;26.70;51.24;98274.34;4993292;28;20207;-70
2022/07/22 06:19:55;;;;;;;4.43;3.60;;;;;;;26.74;51.69;98272.09;4992060;28;20564;-70
2022/07/22 06:22:21;;;;;;;4.72;3.70;;;;;;;26.76;50.71;98265.53;4993316;28;20172;-70
2022/07/22 06:24:46;;;;;;;4.32;3.92;;;;;;;26.84;51.02;98264.50;4991849;28;20205;-69
2022/07/22 06:27:12;;;;;;;4.32;3.47;;;;;;;26.87;51.67;98267.53;5008334;28;20247;-70
2022/07/22 06:29:38;;;;;;;3.60;3.40;;;;;;;26.95;50.55;98275.25;4993314;28;20185;-70
2022/07/22 06:32:03;;;;;;;5.30;3.50;;;;;;;27.04;50.78;98271.34;4993141;28;20182;-70
2022/07/22 06:34:29;;;;;;;4.60;3.33;;;;;;;27.07;50.75;98283.41;4991736;28;20299;-70
2022/07/22 06:36:55;;;;;;;3.70;3.45;;;;;;;27.16;50.61;98275.00;4993030;28;20214;-70
2022/07/22 06:39:21;;;;;;;4.03;3.72;;;;;;;27.19;50.17;98279.91;4993157;28;20202;-70
2022/07/22 06:41:46;;;;;;;4.22;3.83;;;;;;;27.23;49.90;98280.28;4992975;28;20175;-70
2022/07/22 06:44:12;;;;;;;3.90;3.50;;;;;;;27.24;50.18;98276.59;5007941;28;20270;-69
2022/07/22 06:46:37;;;;;;;5.68;3.22;;;;;;;27.19;50.26;98274.59;4993478;28;20179;-69
2022/07/22 06:49:03;;;;;;;7.22;3.75;;;;;;;27.14;50.96;98270.88;4991676;28;20175;-69
2022/07/22 06:51:28;;;;;;;6.93;4.05;;;;;;;27.06;50.88;98266.63;4992869;28;20190;-71
2022/07/22 06:53:54;;;;;;;4.80;3.72;;;;;;;27.12;51.18;98271.09;4991627;28;20183;-70
2022/07/22 06:56:19;;;;;;;8.93;4.10;;;;;;;27.29;51.72;98274.91;5007914;28;20201;-69
2022/07/22 06:58:44;;;;;;;6.47;4.28;;;;;;;27.25;51.80;98275.56;4991429;28;20203;-70
2022/07/22 07:01:10;;;;;;;6.97;4.57;;;;;;;27.25;52.09;98268.41;5008523;28;20266;-69
2022/07/22 07:03:35;;;;;;;4.68;4.28;;;;;;;27.24;51.89;98266.75;4992981;28;20210;-69
2022/07/22 07:06:02;;;;;;;9.65;4.30;;;;;;;27.43;51.69;98273.81;4992418;28;20583;-69
2022/07/22 07:08:28;;;;;;;5.68;4.82;;;;;;;27.52;50.74;98277.84;4992936;28;20190;-69
2022/07/22 07:10:53;;;;;;;7.30;4.65;;;;;;;27.63;50.32;98285.13;4991342;28;20179;-69
2022/07/22 07:13:19;;;;;;;10.80;4.95;;;;;;;27.84;50.22;98292.78;4992622;28;20175;-69
2022/07/22 07:15:44;;;;;;;7.28;5.50;;;;;;;27.92;49.95;98295.16;4991351;28;20274;-69
2022/07/22 07:18:10;;;;;;;10.38;5.07;;;;;;;27.92;50.05;98289.84;4991251;28;20688;-69
2022/07/22 07:20:36;;;;;;;7.90;5.55;;;;;;;27.74;50.05;98271.13;4992580;28;20198;-69
2022/07/22 07:23:02;;;;;;;6.80;5.43;;;;;;;28.01;49.75;98291.22;4992764;28;20183;-69
2022/07/22 07:25:28;;;;;;;11.93;5.43;;;;;;;28.09;49.03;98296.25;4991327;28;20273;-69
2022/07/22 07:27:53;;;;;;;6.20;5.28;;;;;;;28.17;48.73;98289.84;4992538;28;20568;-70
2022/07/22 07:30:19;;;;;;;17.42;5.30;;;;;;;28.19;49.02;98290.41;4992601;28;20175;-70
2022/07/22 07:32:44;;;;;;;9.07;4.93;;;;;;;28.34;49.04;98289.03;4991269;28;20207;-69
2022/07/22 07:35:11;;;;;;;11.45;5.63;;;;;;;28.48;48.15;98287.91;4991148;28;20190;-69
2022/07/22 07:37:36;;;;;;;10.00;5.20;;;;;;;28.40;47.72;98282.84;4992428;28;20656;-70
2022/07/22 07:40:03;;;;;;;8.90;5.25;;;;;;;28.50;48.06;98288.50;4992385;28;20262;-69
2022/07/22 07:42:28;;;;;;;10.45;5.40;;;;;;;28.63;48.31;98283.00;5007436;28;20187;-69
2022/07/22 07:44:54;;;;;;;11.07;6.20;;;;;;;28.74;47.45;98290.28;4992673;28;20253;-70
2022/07/22 07:47:20;;;;;;;11.45;5.80;;;;;;;28.89;47.43;98289.88;4991021;28;20190;-69
2022/07/22 07:49:47;;;;;;;13.88;7.10;;;;;;;28.97;46.60;98294.97;4992338;28;20179;-70
2022/07/22 07:52:13;;;;;;;8.48;5.97;;;;;;;29.01;46.22;98288.97;4992644;28;20178;-70
2022/07/22 07:54:40;;;;;;;5.80;5.30;;;;;;;29.07;45.50;98289.91;4992235;28;20190;-70
2022/07/22 07:57:10;;;;;;;9.40;7.07;;;;;;;29.13;46.26;98289.00;4992272;28;20222;-69
2022/07/22 07:59:36;;;;;;;11.40;7.35;;;;;;;29.10;46.88;98292.91;4992737;28;20155;-70
2022/07/22 08:02:03;;;;;;;11.63;7.53;;;;;;;29.08;47.10;98295.00;4992197;28;20175;-70
2022/07/22 08:04:29;;;;;;;12.68;8.15;;;;;;;29.19;46.70;98293.44;4992130;28;20226;-70
2022/07/22 08:06:54;;;;;;;15.75;8.05;;;;;;;29.24;46.34;98285.56;4992175;28;20691;-69
2022/07/22 08:09:20;;;;;;;14.75;8.13;;;;;;;29.32;46.36;98294.06;4992107;28;20167;-70
2022/07/22 08:11:45;;;;;;;17.13;8.15;;;;;;;29.39;45.80;98293.97;4992128;28;20306;-70
2022/07/22 08:14:11;;;;;;;13.80;7.50;;;;;;;29.48;45.46;98293.44;4992049;28;20179;-70
2022/07/22 08:16:36;;;;;;;18.45;8.70;;;;;;;29.55;45.87;98283.50;4992465;28;20178;-70
2022/07/22 08:19:02;;;;;;;11.52;8.70;;;;;;;29.57;46.43;98286.75;4995511;28;20191;-69
2022/07/22 08:21:28;;;;;;;16.77;7.95;;;;;;;29.67;45.22;98292.34;4995524;28;20181;-70
2022/07/22 08:23:57;;;;;;;13.20;8.25;;;;;;;29.63;45.93;98290.38;5010538;28;20234;-68
2022/07/22 08:26:22;;;;;;;15.70;9.90;;;;;;;29.55;45.73;98283.50;5010563;28;20273;-70
2022/07/22 08:28:47;;;;;;;12.98;8.95;;;;;;;29.42;46.21;98285.50;4994227;28;20652;-70
2022/07/22 08:31:13;;;;;;;18.98;9.77;;;;;;;29.52;46.68;98288.44;4995656;28;20167;-70
2022/07/22 08:33:39;;;;;;;17.15;8.93;;;;;;;29.62;45.51;98291.41;4994075;28;20282;-70
2022/07/22 08:36:05;;;;;;;13.45;9.15;;;;;;;29.72;45.43;98279.13;5010434;28;20175;-70
2022/07/22 08:38:31;;;;;;;13.23;8.60;;;;;;;29.86;44.87;98285.88;5010338;28;20199;-70
2022/07/22 08:40:57;;;;;;;20.40;9.80;;;;;;;29.80;45.28;98292.13;4993999;28;20179;-70
2022/07/22 08:43:24;;;;;;;26.77;9.63;;;;;;;29.72;45.55;98289.81;4994012;28;20258;-70
2022/07/22 08:45:50;;;;;;;23.02;10.13;;;;;;;29.71;46.16;98290.03;5010214;28;20189;-70
2022/07/22 08:48:15;;;;;;;17.42;9.55;;;;;;;29.80;45.76;98292.13;4994020;28;20262;-69
2022/07/22 08:50:41;;;;;;;16.17;10.43;;;;;;;29.93;46.04;98283.94;4995181;28;20214;-70
2022/07/22 08:53:13;;;;;;;18.58;10.68;;;;;;;30.06;45.45;98286.38;5010131;28;20649;-70
2022/07/22 08:55:47;;;;;;;16.38;10.40;;;;;;;30.10;45.45;98290.25;4995581;28;20174;-69
2022/07/22 08:58:14;;;;;;;14.98;10.07;;;;;;;30.20;44.63;98293.13;4995158;28;20191;-70
2022/07/22 09:00:40;;;;;;;19.00;9.75;;;;;;;30.26;44.21;98289.53;4995111;28;20182;-70
2022/07/22 09:03:25;;;;;;;21.27;10.90;;;;;;;30.37;44.58;98293.28;4994834;28;20667;-70
2022/07/22 09:05:51;;;;;;;15.40;10.05;;;;;;;30.57;44.88;98294.53;4994767;28;20558;-70
2022/07/22 09:08:17;;;;;;;20.73;10.75;;;;;;;30.63;44.21;98301.59;4994771;28;20174;-70
2022/07/22 09:10:43;;;;;;;20.55;10.13;;;;;;;30.56;43.88;98298.25;4994635;28;20171;-70
2022/07/22 09:13:10;;;;;;;22.98;10.20;;;;;;;30.64;44.07;98297.06;4994890;28;20228;-70
2022/07/22 09:15:41;;;;;;;12.93;9.10;;;;;;;30.73;43.35;98301.03;4994558;28;20298;-70
2022/07/22 09:18:07;;;;;;;20.38;10.23;;;;;;;30.76;44.15;98298.69;4994737;28;20195;-70
2022/07/22 09:20:35;;;;;;;18.52;9.95;;;;;;;30.89;44.04;98295.75;4993277;28;20198;-70
2022/07/22 09:23:00;;;;;;;12.82;8.93;;;;;;;30.97;43.83;98300.75;5009506;28;20171;-70
2022/07/22 09:25:34;;;;;;;17.73;10.35;;;;;;;31.03;42.66;98294.47;4994229;28;20218;-70
2022/07/22 09:28:06;;;;;;;17.55;9.82;;;;;;;31.10;43.04;98288.94;5009828;28;20182;-70
2022/07/22 09:30:34;;;;;;;15.45;9.85;;;;;;;31.17;42.73;98295.78;4994563;28;20652;-70
2022/07/22 09:33:01;;;;;;;17.15;9.32;;;;;;;31.28;42.63;98292.28;4992961;28;20207;-70
2022/07/22 09:35:28;;;;;;;14.65;9.70;;;;;;;31.37;42.26;98293.50;4994167;28;20186;-70
2022/07/22 09:37:57;;;;;;;12.40;8.63;;;;;;;31.47;41.54;98300.94;4994084;28;20198;-70
2022/07/22 09:40:23;;;;;;;18.48;9.63;;;;;;;31.55;41.34;98301.34;4994246;28;20254;-70
2022/07/22 09:42:54;;;;;;;14.88;8.93;;;;;;;31.65;41.48;98298.84;4994003;28;20262;-70
2022/07/22 09:45:21;;;;;;;19.67;9.13;;;;;;;31.74;41.03;98304.63;4994007;28;20680;-70
2022/07/22 09:47:48;;;;;;;12.13;8.38;;;;;;;31.75;41.09;98299.06;4994131;28;20195;-70
2022/07/22 09:50:25;;;;;;;16.38;8.95;;;;;;;31.86;40.40;98298.19;4993944;28;20175;-70
2022/07/22 09:52:55;;;;;;;14.00;8.10;;;;;;;31.84;40.55;98281.56;4993784;28;20254;-70
2022/07/22 09:55:23;;;;;;;11.43;8.63;;;;;;;31.95;40.37;98291.34;4993799;28;20237;-70
2022/07/22 09:57:50;;;;;;;12.60;7.78;;;;;;;32.08;39.55;98292.91;4993648;28;20285;-70
2022/07/22 10:00:18;;;;;;;25.17;8.73;;;;;;;32.00;39.43;98288.75;4993767;28;20282;-70
2022/07/22 10:02:49;;;;;;;13.18;7.35;;;;;;;32.03;39.33;98269.53;4993684;28;20202;-70
2022/07/22 10:05:18;;;;;;;9.65;7.57;;;;;;;32.22;39.54;98288.81;5008730;28;20179;-70
2022/07/22 10:07:45;;;;;;;13.98;7.75;;;;;;;32.35;38.83;98280.50;4993591;28;20649;-70
2022/07/22 10:10:16;;;;;;;10.30;7.68;;;;;;;32.47;37.86;98281.97;4993486;28;20210;-70
2022/07/22 10:12:43;;;;;;;16.00;6.93;;;;;;;32.56;38.62;98275.16;4993802;28;20159;-70
2022/07/22 10:15:09;;;;;;;15.60;6.95;;;;;;;32.63;38.25;98278.47;4993452;28;20250;-70
2022/07/22 10:17:44;;;;;;;12.32;6.30;;;;;;;32.79;37.47;98274.94;4992098;28;20178;-69
2022/07/22 10:20:11;;;;;;;13.02;6.82;;;;;;;32.92;37.07;98277.25;4993584;28;20151;-69
2022/07/22 10:22:40;;;;;;;11.48;7.38;;;;;;;33.07;37.54;98272.06;4993285;28;20175;-69
2022/07/22 10:25:07;;;;;;;9.82;6.57;;;;;;;33.23;37.45;98275.72;4993378;28;20292;-69
2022/07/22 10:27:52;;;;;;;8.30;6.40;;;;;;;33.43;35.90;98267.91;5008339;28;20222;-69
2022/07/22 10:30:25;;;;;;;8.40;5.45;;;;;;;33.46;35.23;98254.78;4993000;28;20215;-69
2022/07/22 10:33:12;;;;;;;8.98;5.75;;;;;;;33.68;35.83;98273.53;4991899;28;20175;-69
2022/07/22 10:36:01;;;;;;;10.10;5.88;;;;;;;33.81;34.55;98268.53;4993031;28;20249;-69
2022/07/22 10:38:28;;;;;;;8.95;5.97;;;;;;;33.93;34.25;98271.84;4989682;28;20215;-69
2022/07/22 10:40:59;;;;;;;14.65;5.95;;;;;;;34.05;33.84;98271.69;4992714;28;20604;-69
2022/07/22 10:43:30;;;;;;;10.20;5.88;;;;;;;34.15;34.25;98269.09;4993037;28;20171;-69
2022/07/22 10:46:02;;;;;;;9.75;5.63;;;;;;;34.26;33.92;98271.59;4991852;28;20171;-69
2022/07/22 10:48:37;;;;;;;10.30;5.85;;;;;;;34.37;33.34;98265.22;4993011;28;20229;-69
2022/07/22 10:51:17;;;;;;;12.43;5.53;;;;;;;34.48;32.71;98268.75;4992888;28;20171;-69
2022/07/22 10:54:01;;;;;;;9.07;5.78;;;;;;;34.70;33.21;98269.41;4993148;28;20547;-69
2022/07/22 10:56:35;;;;;;;9.77;4.93;;;;;;;34.95;32.60;98264.97;4993122;28;20177;-70
2022/07/22 10:59:14;;;;;;;7.47;5.20;;;;;;;35.14;31.26;98270.69;4992893;28;20199;-69
2022/07/22 11:01:42;;;;;;;9.93;4.88;;;;;;;35.39;31.30;98274.28;4991524;28;20630;-69
2022/07/22 11:04:14;;;;;;;10.60;5.38;;;;;;;35.68;30.40;98274.59;4993018;28;20258;-70
2022/07/22 11:06:40;;;;;;;14.57;5.07;;;;;;;35.86;29.51;98280.28;4992887;28;20227;-70
2022/07/22 11:09:08;;;;;;;8.70;4.82;;;;;;;36.05;29.51;98275.13;4992812;28;20198;-69
2022/07/22 11:11:49;;;;;;;10.55;5.05;;;;;;;36.13;29.42;98271.91;4992572;28;20182;-70
2022/07/22 11:14:26;;;;;;;10.30;5.07;;;;;;;36.35;29.26;98267.84;4992905;28;20641;-70
2022/07/22 11:16:55;;;;;;;7.40;5.70;;;;;;;36.47;28.58;98268.34;4992641;28;20155;-69
2022/07/22 11:19:27;;;;;;;7.47;4.75;;;;;;;36.65;28.57;98275.09;4992510;28;20235;-69
2022/07/22 11:21:58;;;;;;;12.35;5.50;;;;;;;36.76;27.85;98273.94;4992645;28;20186;-70
2022/07/22 11:24:25;;;;;;;7.10;5.35;;;;;;;36.72;28.25;98268.28;4992430;28;20266;-69
2022/07/22 11:26:52;;;;;;;11.63;5.00;;;;;;;36.73;28.05;98253.75;4992422;28;20199;-70
2022/07/22 11:29:26;;;;;;;6.38;5.10;;;;;;;37.00;27.85;98277.66;4992655;28;20167;-70